createdAt,value
2023-04-09T00:00:11.175Z,5.61
2023-04-09T00:01:11.133Z,5.64
2023-04-09T00:02:11.179Z,5.66
2023-04-09T00:03:11.229Z,5.69
2023-04-09T00:04:11.146Z,5.72
2023-04-09T00:05:11.132Z,5.73
2023-04-09T00:06:11.087Z,5.72
2023-04-09T00:07:11.086Z,5.75
2023-04-09T00:08:11.070Z,5.72
2023-04-09T00:09:11.053Z,5.73
2023-04-09T00:10:11.101Z,5.75
2023-04-09T00:11:11.027Z,5.71
2023-04-09T00:12:11.029Z,5.68
2023-04-09T00:13:11.011Z,5.68
2023-04-09T00:14:11.008Z,5.65
2023-04-09T00:15:15.040Z,5.69
2023-04-09T00:16:11.019Z,5.69
2023-04-09T00:17:10.970Z,5.69
2023-04-09T00:18:10.968Z,5.69
2023-04-09T00:19:10.959Z,5.66
2023-04-09T00:20:10.948Z,5.64
2023-04-09T00:21:10.992Z,5.61
2023-04-09T00:22:10.926Z,5.57
2023-04-09T00:23:12.893Z,5.57
2023-04-09T00:24:10.921Z,5.53
2023-04-09T00:25:10.898Z,5.48
2023-04-09T00:26:10.906Z,5.47
2023-04-09T00:27:10.873Z,5.46
2023-04-09T00:28:10.864Z,5.39
2023-04-09T00:29:10.844Z,5.35
2023-04-09T00:30:10.846Z,5.35
2023-04-09T00:31:10.897Z,5.29
2023-04-09T00:32:10.822Z,5.30
2023-04-09T00:33:10.817Z,5.28
2023-04-09T00:34:10.842Z,5.28
2023-04-09T00:35:10.802Z,5.29
2023-04-09T00:36:10.864Z,5.29
2023-04-09T00:37:10.771Z,5.29
2023-04-09T00:38:10.782Z,5.28
2023-04-09T00:39:10.746Z,5.25
2023-04-09T00:40:10.742Z,5.26
2023-04-09T00:41:10.762Z,5.25
2023-04-09T00:42:10.722Z,5.21
2023-04-09T00:43:10.730Z,5.21
2023-04-09T00:44:10.757Z,5.21
2023-04-09T00:45:10.749Z,5.17
2023-04-09T00:46:10.779Z,5.20
2023-04-09T00:47:10.703Z,5.21
2023-04-09T00:48:10.658Z,5.26
2023-04-09T00:49:10.670Z,5.30
2023-04-09T00:50:10.643Z,5.32
2023-04-09T00:51:10.649Z,5.36
2023-04-09T00:52:10.647Z,5.41
2023-04-09T00:53:10.626Z,5.46
2023-04-09T00:54:10.637Z,5.50
2023-04-09T00:55:10.622Z,5.56
2023-04-09T00:56:10.622Z,5.62
2023-04-09T00:57:10.627Z,5.59
2023-04-09T00:58:10.593Z,5.61
2023-04-09T00:59:10.557Z,5.61
2023-04-09T01:00:10.581Z,5.57
2023-04-09T01:01:10.601Z,5.54
2023-04-09T01:02:10.646Z,5.54
2023-04-09T01:03:10.602Z,5.56
2023-04-09T01:04:10.501Z,5.57
2023-04-09T01:05:10.549Z,5.51
2023-04-09T01:06:10.503Z,5.51
2023-04-09T01:07:10.505Z,5.50
2023-04-09T01:08:10.478Z,5.48
2023-04-09T01:09:10.472Z,5.44
2023-04-09T01:10:10.726Z,5.39
2023-04-09T01:11:10.437Z,5.36
2023-04-09T01:12:10.432Z,5.32
2023-04-09T01:13:10.422Z,5.29
2023-04-09T01:14:10.453Z,5.26
2023-04-09T01:15:10.438Z,5.23
2023-04-09T01:16:10.432Z,5.18
2023-04-09T01:17:10.374Z,5.18
2023-04-09T01:18:10.355Z,5.12
2023-04-09T01:19:10.356Z,5.14
2023-04-09T01:20:10.340Z,5.10
2023-04-09T01:21:10.435Z,5.07
2023-04-09T01:22:10.332Z,5.05
2023-04-09T01:23:10.312Z,5.04
2023-04-09T01:24:10.292Z,5.08
2023-04-09T01:25:10.283Z,5.10
2023-04-09T01:26:10.333Z,5.08
2023-04-09T01:27:10.280Z,5.12
2023-04-09T01:28:10.251Z,5.14
2023-04-09T01:29:10.261Z,5.17
2023-04-09T01:30:10.225Z,5.15
2023-04-09T01:31:10.285Z,5.17
2023-04-09T01:32:10.224Z,5.18
2023-04-09T01:33:10.224Z,5.21
2023-04-09T01:34:10.195Z,5.25
2023-04-09T01:35:10.186Z,5.26
2023-04-09T01:36:10.292Z,5.26
2023-04-09T01:37:10.174Z,5.26
2023-04-09T01:38:10.190Z,5.28
2023-04-09T01:39:10.159Z,5.28
2023-04-09T01:40:10.138Z,5.29
2023-04-09T01:41:10.149Z,5.29
2023-04-09T01:42:10.115Z,5.30
2023-04-09T01:43:10.110Z,5.29
2023-04-09T01:44:10.104Z,5.29
2023-04-09T01:45:10.089Z,5.30
2023-04-09T01:46:10.204Z,5.35
2023-04-09T01:47:10.073Z,5.33
2023-04-09T01:48:10.053Z,5.39
2023-04-09T01:49:10.054Z,5.36
2023-04-09T01:50:10.050Z,5.33
2023-04-09T01:51:10.048Z,5.35
2023-04-09T01:52:10.049Z,5.36
2023-04-09T01:53:10.022Z,5.41
2023-04-09T01:54:09.990Z,5.44
2023-04-09T01:55:10.036Z,5.46
2023-04-09T01:56:10.028Z,5.46
2023-04-09T01:57:09.973Z,5.44
2023-04-09T01:58:09.966Z,5.41
2023-04-09T01:59:09.953Z,5.39
2023-04-09T02:00:09.984Z,5.38
2023-04-09T02:01:09.989Z,5.39
2023-04-09T02:02:10.076Z,5.38
2023-04-09T02:03:09.997Z,5.38
2023-04-09T02:04:09.902Z,5.33
2023-04-09T02:05:09.951Z,5.33
2023-04-09T02:06:09.902Z,5.36
2023-04-09T02:07:09.884Z,5.38
2023-04-09T02:08:09.860Z,5.38
2023-04-09T02:09:09.842Z,5.43
2023-04-09T02:10:09.910Z,5.44
2023-04-09T02:11:09.850Z,5.44
2023-04-09T02:12:09.817Z,5.46
2023-04-09T02:13:09.896Z,5.47
2023-04-09T02:14:09.932Z,5.47
2023-04-09T02:15:10.011Z,5.50
2023-04-09T02:16:09.871Z,5.50
2023-04-09T02:17:09.769Z,5.51
2023-04-09T02:18:09.794Z,5.51
2023-04-09T02:19:09.750Z,5.50
2023-04-09T02:20:09.737Z,5.50
2023-04-09T02:21:10.390Z,5.50
2023-04-09T02:22:09.718Z,5.50
2023-04-09T02:23:09.705Z,5.53
2023-04-09T02:24:10.604Z,5.50
2023-04-09T02:25:09.697Z,5.51
2023-04-09T02:26:09.700Z,5.51
2023-04-09T02:27:09.725Z,5.51
2023-04-09T02:28:09.647Z,5.51
2023-04-09T02:29:09.651Z,5.48
2023-04-09T02:30:09.654Z,5.48
2023-04-09T02:31:09.675Z,5.50
2023-04-09T02:32:09.652Z,5.47
2023-04-09T02:33:09.614Z,5.47
2023-04-09T02:34:09.622Z,5.46
2023-04-09T02:35:09.581Z,5.46
2023-04-09T02:36:09.633Z,5.44
2023-04-09T02:37:09.572Z,5.44
2023-04-09T02:38:09.547Z,5.44
2023-04-09T02:39:09.558Z,5.43
2023-04-09T02:40:09.523Z,5.44
2023-04-09T02:41:09.626Z,5.44
2023-04-09T02:42:09.501Z,5.47
2023-04-09T02:43:09.532Z,5.44
2023-04-09T02:44:09.476Z,5.46
2023-04-09T02:45:09.476Z,5.47
2023-04-09T02:46:09.554Z,5.53
2023-04-09T02:47:09.465Z,5.56
2023-04-09T02:48:09.448Z,5.56
2023-04-09T02:49:09.446Z,5.57
2023-04-09T02:50:09.429Z,5.56
2023-04-09T02:51:09.441Z,5.56
2023-04-09T02:52:09.401Z,5.56
2023-04-09T02:53:09.406Z,5.56
2023-04-09T02:54:09.384Z,5.51
2023-04-09T02:55:09.387Z,5.50
2023-04-09T02:56:09.383Z,5.48
2023-04-09T02:57:09.387Z,5.48
2023-04-09T02:58:09.342Z,5.47
2023-04-09T02:59:09.348Z,5.44
2023-04-09T03:00:09.327Z,5.36
2023-04-09T03:01:09.374Z,5.35
2023-04-09T03:02:09.352Z,5.29
2023-04-09T03:03:09.382Z,5.26
2023-04-09T03:04:09.349Z,5.26
2023-04-09T03:05:09.283Z,5.23
2023-04-09T03:06:09.335Z,5.23
2023-04-09T03:07:09.274Z,5.17
2023-04-09T03:08:09.248Z,5.15
2023-04-09T03:09:09.261Z,5.14
2023-04-09T03:10:09.219Z,5.11
2023-04-09T03:11:09.249Z,5.10
2023-04-09T03:12:09.204Z,5.07
2023-04-09T03:13:09.217Z,5.08
2023-04-09T03:14:09.193Z,5.05
2023-04-09T03:15:09.175Z,5.02
2023-04-09T03:16:09.183Z,5.02
2023-04-09T03:17:09.207Z,4.99
2023-04-09T03:18:09.150Z,4.99
2023-04-09T03:19:09.150Z,4.97
2023-04-09T03:20:09.129Z,4.97
2023-04-09T03:21:09.114Z,4.94
2023-04-09T03:22:09.187Z,4.92
2023-04-09T03:23:09.100Z,4.87
2023-04-09T03:24:09.078Z,4.87
2023-04-09T03:25:09.096Z,4.87
2023-04-09T03:26:09.069Z,4.87
2023-04-09T03:27:09.073Z,4.87
2023-04-09T03:28:09.049Z,4.86
2023-04-09T03:29:09.041Z,4.82
2023-04-09T03:30:09.014Z,4.82
2023-04-09T03:31:09.062Z,4.80
2023-04-09T03:32:09.006Z,4.77
2023-04-09T03:33:08.998Z,4.77
2023-04-09T03:34:08.986Z,4.75
2023-04-09T03:35:08.996Z,4.78
2023-04-09T03:36:09.139Z,4.78
2023-04-09T03:37:08.971Z,4.77
2023-04-09T03:38:08.947Z,4.77
2023-04-09T03:39:08.947Z,4.77
2023-04-09T03:40:08.925Z,4.80
2023-04-09T03:41:08.931Z,4.82
2023-04-09T03:42:08.908Z,4.86
2023-04-09T03:43:08.909Z,4.82
2023-04-09T03:44:08.880Z,4.84
2023-04-09T03:45:08.892Z,4.87
2023-04-09T03:46:08.896Z,4.86
2023-04-09T03:47:08.855Z,4.87
2023-04-09T03:48:08.842Z,4.90
2023-04-09T03:49:08.849Z,4.94
2023-04-09T03:50:08.845Z,4.93
2023-04-09T03:51:08.833Z,4.94
2023-04-09T03:52:08.803Z,4.93
2023-04-09T03:53:08.844Z,4.94
2023-04-09T03:54:08.787Z,4.97
2023-04-09T03:55:08.779Z,5.00
2023-04-09T03:56:08.784Z,4.97
2023-04-09T03:57:08.758Z,4.99
2023-04-09T03:58:08.760Z,4.99
2023-04-09T03:59:08.733Z,4.99
2023-04-09T04:00:08.801Z,5.02
2023-04-09T04:01:08.740Z,5.04
2023-04-09T04:02:08.797Z,5.04
2023-04-09T04:03:08.823Z,5.07
2023-04-09T04:04:08.836Z,5.05
2023-04-09T04:05:08.676Z,5.10
2023-04-09T04:06:08.609Z,5.10
2023-04-09T04:07:08.716Z,5.11
2023-04-09T04:08:08.630Z,5.12
2023-04-09T04:09:08.629Z,5.11
2023-04-09T04:10:08.636Z,5.12
2023-04-09T04:11:08.579Z,5.12
2023-04-09T04:12:08.564Z,5.12
2023-04-09T04:13:08.582Z,5.15
2023-04-09T04:14:08.584Z,5.14
2023-04-09T04:15:08.579Z,5.15
2023-04-09T04:16:08.591Z,5.15
2023-04-09T04:17:08.521Z,5.15
2023-04-09T04:18:08.497Z,5.14
2023-04-09T04:19:08.479Z,5.15
2023-04-09T04:20:08.482Z,5.14
2023-04-09T04:21:08.453Z,5.15
2023-04-09T04:22:08.460Z,5.12
2023-04-09T04:23:08.430Z,5.15
2023-04-09T04:24:08.412Z,5.15
2023-04-09T04:25:08.484Z,5.17
2023-04-09T04:26:08.390Z,5.15
2023-04-09T04:27:08.408Z,5.17
2023-04-09T04:28:08.430Z,5.15
2023-04-09T04:29:08.368Z,5.15
2023-04-09T04:30:08.379Z,5.14
2023-04-09T04:31:08.384Z,5.12
2023-04-09T04:32:08.351Z,5.17
2023-04-09T04:33:08.353Z,5.17
2023-04-09T04:34:08.315Z,5.17
2023-04-09T04:35:08.311Z,5.14
2023-04-09T04:36:08.296Z,5.18
2023-04-09T04:37:08.329Z,5.15
2023-04-09T04:38:08.287Z,5.15
2023-04-09T04:39:08.272Z,5.14
2023-04-09T04:40:08.260Z,5.14
2023-04-09T04:41:08.264Z,5.12
2023-04-09T04:42:08.291Z,5.14
2023-04-09T04:43:08.235Z,5.14
2023-04-09T04:44:08.217Z,5.12
2023-04-09T04:45:08.203Z,5.15
2023-04-09T04:46:08.299Z,5.15
2023-04-09T04:47:08.229Z,5.18
2023-04-09T04:48:08.185Z,5.17
2023-04-09T04:49:08.164Z,5.18
2023-04-09T04:50:08.177Z,5.17
2023-04-09T04:51:08.147Z,5.20
2023-04-09T04:52:08.138Z,5.23
2023-04-09T04:53:08.145Z,5.20
2023-04-09T04:54:08.115Z,5.21
2023-04-09T04:55:08.125Z,5.23
2023-04-09T04:56:08.090Z,5.23
2023-04-09T04:57:08.103Z,5.25
2023-04-09T04:58:08.090Z,5.25
2023-04-09T04:59:08.070Z,5.25
2023-04-09T05:00:08.044Z,5.28
2023-04-09T05:01:08.116Z,5.26
2023-04-09T05:02:08.163Z,5.28
2023-04-09T05:03:08.062Z,5.29
2023-04-09T05:04:08.028Z,5.29
2023-04-09T05:05:08.014Z,5.29
2023-04-09T05:06:08.002Z,5.30
2023-04-09T05:07:08.002Z,5.32
2023-04-09T05:08:08.067Z,5.32
2023-04-09T05:09:07.987Z,5.35
2023-04-09T05:10:07.960Z,5.32
2023-04-09T05:11:07.949Z,5.35
2023-04-09T05:12:07.941Z,5.36
2023-04-09T05:13:07.915Z,5.39
2023-04-09T05:14:07.929Z,5.38
2023-04-09T05:15:07.898Z,5.41
2023-04-09T05:16:07.890Z,5.41
2023-04-09T05:17:07.889Z,5.39
2023-04-09T05:18:07.891Z,5.43
2023-04-09T05:19:07.896Z,5.47
2023-04-09T05:20:07.851Z,5.44
2023-04-09T05:21:07.875Z,5.47
2023-04-09T05:22:07.852Z,5.51
2023-04-09T05:23:07.855Z,5.51
2023-04-09T05:24:07.813Z,5.53
2023-04-09T05:25:07.800Z,5.53
2023-04-09T05:26:07.787Z,5.56
2023-04-09T05:27:07.798Z,5.61
2023-04-09T05:28:07.803Z,5.57
2023-04-09T05:29:07.766Z,5.59
2023-04-09T05:30:07.757Z,5.64
2023-04-09T05:31:07.829Z,5.64
2023-04-09T05:32:07.760Z,5.66
2023-04-09T05:33:07.728Z,5.68
2023-04-09T05:34:07.711Z,5.73
2023-04-09T05:35:07.737Z,5.73
2023-04-09T05:36:07.810Z,5.75
2023-04-09T05:37:07.745Z,5.79
2023-04-09T05:38:07.683Z,5.79
2023-04-09T05:39:07.657Z,5.80
2023-04-09T05:40:07.654Z,5.83
2023-04-09T05:41:07.628Z,5.86
2023-04-09T05:42:07.652Z,5.90
2023-04-09T05:43:07.628Z,5.93
2023-04-09T05:44:07.657Z,5.93
2023-04-09T05:45:07.604Z,5.99
2023-04-09T05:46:07.641Z,6.02
2023-04-09T05:47:07.586Z,6.04
2023-04-09T05:48:07.646Z,6.05
2023-04-09T05:49:07.562Z,6.09
2023-04-09T05:50:07.570Z,6.11
2023-04-09T05:51:07.590Z,6.14
2023-04-09T05:52:07.547Z,6.16
2023-04-09T05:53:07.646Z,6.20
2023-04-09T05:54:07.509Z,6.22
2023-04-09T05:55:07.492Z,6.26
2023-04-09T05:56:07.490Z,6.27
2023-04-09T05:57:07.496Z,6.33
2023-04-09T05:58:07.471Z,6.36
2023-04-09T05:59:07.467Z,6.39
2023-04-09T06:00:07.442Z,6.38
2023-04-09T06:01:07.438Z,6.41
2023-04-09T06:02:07.503Z,6.44
2023-04-09T06:03:07.564Z,6.44
2023-04-09T06:04:07.541Z,6.48
2023-04-09T06:05:07.387Z,6.49
2023-04-09T06:06:07.401Z,6.49
2023-04-09T06:07:07.408Z,6.56
2023-04-09T06:08:07.390Z,6.60
2023-04-09T06:09:07.359Z,6.60
2023-04-09T06:10:07.362Z,6.66
2023-04-09T06:11:07.328Z,6.67
2023-04-09T06:12:07.354Z,6.69
2023-04-09T06:13:07.312Z,6.74
2023-04-09T06:14:07.304Z,6.77
2023-04-09T06:15:07.308Z,6.79
2023-04-09T06:16:07.444Z,6.85
2023-04-09T06:17:07.329Z,6.88
2023-04-09T06:18:07.370Z,6.89
2023-04-09T06:19:07.265Z,6.95
2023-04-09T06:20:07.256Z,6.97
2023-04-09T06:21:07.324Z,7.00
2023-04-09T06:22:07.257Z,7.05
2023-04-09T06:23:07.223Z,7.07
2023-04-09T06:24:07.208Z,7.10
2023-04-09T06:25:07.244Z,7.13
2023-04-09T06:26:07.196Z,7.15
2023-04-09T06:27:07.232Z,7.21
2023-04-09T06:28:07.211Z,7.21
2023-04-09T06:29:07.159Z,7.24
2023-04-09T06:30:07.162Z,7.31
2023-04-09T06:31:07.143Z,7.35
2023-04-09T06:32:07.147Z,7.40
2023-04-09T06:33:07.136Z,7.45
2023-04-09T06:34:07.130Z,7.50
2023-04-09T06:35:08.322Z,7.54
2023-04-09T06:36:07.162Z,7.61
2023-04-09T06:37:07.070Z,7.67
2023-04-09T06:38:07.103Z,7.76
2023-04-09T06:39:07.050Z,7.79
2023-04-09T06:40:07.041Z,7.82
2023-04-09T06:41:07.032Z,7.90
2023-04-09T06:42:07.047Z,7.93
2023-04-09T06:43:07.030Z,7.95
2023-04-09T06:44:07.126Z,8.05
2023-04-09T06:45:06.990Z,8.15
2023-04-09T06:46:07.016Z,8.15
2023-04-09T06:47:06.966Z,8.23
2023-04-09T06:48:07.013Z,8.30
2023-04-09T06:49:07.068Z,8.41
2023-04-09T06:50:06.961Z,8.52
2023-04-09T06:51:06.926Z,8.58
2023-04-09T06:52:06.924Z,8.58
2023-04-09T06:53:06.945Z,8.67
2023-04-09T06:54:06.895Z,8.76
2023-04-09T06:55:06.880Z,8.87
2023-04-09T06:56:06.885Z,8.94
2023-04-09T06:57:07.048Z,8.97
2023-04-09T06:58:06.907Z,8.88
2023-04-09T06:59:06.834Z,8.73
2023-04-09T07:00:06.832Z,8.85
2023-04-09T07:01:06.816Z,8.89
2023-04-09T07:02:06.943Z,8.71
2023-04-09T07:03:06.884Z,8.87
2023-04-09T07:04:06.911Z,8.89
2023-04-09T07:05:06.782Z,8.84
2023-04-09T07:06:06.785Z,8.73
2023-04-09T07:07:06.754Z,8.70
2023-04-09T07:08:06.778Z,9.00
2023-04-09T07:09:06.729Z,9.19
2023-04-09T07:10:06.745Z,9.14
2023-04-09T07:11:06.716Z,9.40
2023-04-09T07:12:06.714Z,10.40
2023-04-09T07:13:06.725Z,11.57
2023-04-09T07:14:06.733Z,11.32
2023-04-09T07:15:06.687Z,11.30
2023-04-09T07:16:06.699Z,11.32
2023-04-09T07:17:06.658Z,11.08
2023-04-09T07:18:06.718Z,11.23
2023-04-09T07:19:06.634Z,11.52
2023-04-09T07:20:06.640Z,11.57
2023-04-09T07:21:06.616Z,11.62
2023-04-09T07:22:06.595Z,11.70
2023-04-09T07:23:06.600Z,12.00
2023-04-09T07:24:06.611Z,12.45
2023-04-09T07:25:06.577Z,13.37
2023-04-09T07:26:06.580Z,14.66
2023-04-09T07:27:06.553Z,15.68
2023-04-09T07:28:06.561Z,15.17
2023-04-09T07:29:06.541Z,14.40
2023-04-09T07:30:06.613Z,14.03
2023-04-09T07:31:06.539Z,13.59
2023-04-09T07:32:06.501Z,13.35
2023-04-09T07:33:06.594Z,13.35
2023-04-09T07:34:06.493Z,13.54
2023-04-09T07:35:06.466Z,13.90
2023-04-09T07:36:06.491Z,14.11
2023-04-09T07:37:06.443Z,15.07
2023-04-09T07:38:06.473Z,16.46
2023-04-09T07:39:06.425Z,17.34
2023-04-09T07:40:06.421Z,18.07
2023-04-09T07:41:06.414Z,18.11
2023-04-09T07:42:06.518Z,17.70
2023-04-09T07:43:06.427Z,15.44
2023-04-09T07:44:06.509Z,14.96
2023-04-09T07:45:06.357Z,14.92
2023-04-09T07:46:06.358Z,15.61
2023-04-09T07:47:06.348Z,15.61
2023-04-09T07:48:06.348Z,16.15
2023-04-09T07:49:06.323Z,16.68
2023-04-09T07:50:06.309Z,17.22
2023-04-09T07:51:06.295Z,17.46
2023-04-09T07:52:06.292Z,16.72
2023-04-09T07:53:06.295Z,16.23
2023-04-09T07:54:06.265Z,15.90
2023-04-09T07:55:06.262Z,16.49
2023-04-09T07:56:06.277Z,16.72
2023-04-09T07:57:06.240Z,17.27
2023-04-09T07:58:06.277Z,17.45
2023-04-09T07:59:06.231Z,17.41
2023-04-09T08:00:06.200Z,17.09
2023-04-09T08:01:06.200Z,16.96
2023-04-09T08:02:06.239Z,16.90
2023-04-09T08:03:06.296Z,16.41
2023-04-09T08:04:06.344Z,16.46
2023-04-09T08:05:06.255Z,16.51
2023-04-09T08:06:06.142Z,17.27
2023-04-09T08:07:06.144Z,17.06
2023-04-09T08:08:06.177Z,17.83
2023-04-09T08:09:06.107Z,17.98
2023-04-09T08:10:06.110Z,17.94
2023-04-09T08:11:06.082Z,18.38
2023-04-09T08:12:06.091Z,17.59
2023-04-09T08:13:06.096Z,16.97
2023-04-09T08:14:06.055Z,17.38
2023-04-09T08:15:06.062Z,17.31
2023-04-09T08:16:06.051Z,16.05
2023-04-09T08:17:06.033Z,15.58
2023-04-09T08:18:06.116Z,15.33
2023-04-09T08:19:06.007Z,14.79
2023-04-09T08:20:06.007Z,14.69
2023-04-09T08:21:06.010Z,14.36
2023-04-09T08:22:05.976Z,13.93
2023-04-09T08:23:05.979Z,13.67
2023-04-09T08:24:05.965Z,13.47
2023-04-09T08:25:05.935Z,13.39
2023-04-09T08:26:05.938Z,13.22
2023-04-09T08:27:05.931Z,12.94
2023-04-09T08:28:05.936Z,12.94
2023-04-09T08:29:05.921Z,12.91
2023-04-09T08:30:05.893Z,12.98
2023-04-09T08:31:05.893Z,14.15
2023-04-09T08:32:05.909Z,14.92
2023-04-09T08:33:05.951Z,15.22
2023-04-09T08:34:05.864Z,14.79
2023-04-09T08:35:05.872Z,15.06
2023-04-09T08:36:05.886Z,14.70
2023-04-09T08:37:05.836Z,15.14
2023-04-09T08:38:05.829Z,15.91
2023-04-09T08:39:05.803Z,15.84
2023-04-09T08:40:05.804Z,16.86
2023-04-09T08:41:05.796Z,16.87
2023-04-09T08:42:05.775Z,17.29
2023-04-09T08:43:05.784Z,17.23
2023-04-09T08:44:05.762Z,17.09
2023-04-09T08:45:05.764Z,17.83
2023-04-09T08:46:05.788Z,18.53
2023-04-09T08:47:05.721Z,18.83
2023-04-09T08:48:05.814Z,18.70
2023-04-09T08:49:05.709Z,17.59
2023-04-09T08:50:05.712Z,17.29
2023-04-09T08:51:05.701Z,17.82
2023-04-09T08:52:05.809Z,18.05
2023-04-09T08:53:05.663Z,18.05
2023-04-09T08:54:05.643Z,18.89
2023-04-09T08:55:05.638Z,18.59
2023-04-09T08:56:05.623Z,17.09
2023-04-09T08:57:05.645Z,17.19
2023-04-09T08:58:05.616Z,16.75
2023-04-09T08:59:05.594Z,16.35
2023-04-09T09:00:05.599Z,14.88
2023-04-09T09:01:05.589Z,13.97
2023-04-09T09:02:05.664Z,13.63
2023-04-09T09:03:05.778Z,13.20
2023-04-09T09:04:05.589Z,13.50
2023-04-09T09:05:05.527Z,13.99
2023-04-09T09:06:05.509Z,14.33
2023-04-09T09:07:05.508Z,14.51
2023-04-09T09:08:05.504Z,14.14
2023-04-09T09:09:05.477Z,13.50
2023-04-09T09:10:05.567Z,13.25
2023-04-09T09:11:05.480Z,12.98
2023-04-09T09:12:05.449Z,12.58
2023-04-09T09:13:05.465Z,12.39
2023-04-09T09:14:05.435Z,12.10
2023-04-09T09:15:05.419Z,11.84
2023-04-09T09:16:05.413Z,11.77
2023-04-09T09:17:05.517Z,11.81
2023-04-09T09:18:05.440Z,11.81
2023-04-09T09:19:05.365Z,12.00
2023-04-09T09:20:05.361Z,12.02
2023-04-09T09:21:05.354Z,11.88
2023-04-09T09:22:05.356Z,11.78
2023-04-09T09:23:05.335Z,11.80
2023-04-09T09:24:05.321Z,11.69
2023-04-09T09:25:05.330Z,11.70
2023-04-09T09:26:05.304Z,11.65
2023-04-09T09:27:05.288Z,11.65
2023-04-09T09:28:05.302Z,11.54
2023-04-09T09:29:05.268Z,11.55
2023-04-09T09:30:05.286Z,11.55
2023-04-09T09:31:05.275Z,11.62
2023-04-09T09:32:05.243Z,11.69
2023-04-09T09:33:05.289Z,11.57
2023-04-09T09:34:05.217Z,11.54
2023-04-09T09:35:05.215Z,11.51
2023-04-09T09:36:05.272Z,11.48
2023-04-09T09:37:06.808Z,11.33
2023-04-09T09:38:05.235Z,11.26
2023-04-09T09:39:05.185Z,10.99
2023-04-09T09:40:05.158Z,10.96
2023-04-09T09:41:05.158Z,11.02
2023-04-09T09:42:05.134Z,11.04
2023-04-09T09:43:05.309Z,10.89
2023-04-09T09:44:05.110Z,10.76
2023-04-09T09:45:05.109Z,10.86
2023-04-09T09:46:05.167Z,11.02
2023-04-09T09:47:05.088Z,10.97
2023-04-09T09:48:05.223Z,10.93
2023-04-09T09:49:05.066Z,10.87
2023-04-09T09:50:05.058Z,10.82
2023-04-09T09:51:05.061Z,10.90
2023-04-09T09:52:05.032Z,10.93
2023-04-09T09:53:05.275Z,10.99
2023-04-09T09:54:05.011Z,11.04
2023-04-09T09:55:05.022Z,10.97
2023-04-09T09:56:05.072Z,10.97
2023-04-09T09:57:05.005Z,10.84
2023-04-09T09:58:05.250Z,10.69
2023-04-09T09:59:04.967Z,10.78
2023-04-09T10:00:04.946Z,10.86
2023-04-09T10:01:04.981Z,10.94
2023-04-09T10:02:05.044Z,10.96
2023-04-09T10:03:05.507Z,10.97
2023-04-09T10:04:04.918Z,11.10
2023-04-09T10:05:04.894Z,11.02
2023-04-09T10:06:04.886Z,10.94
2023-04-09T10:07:04.878Z,10.86
2023-04-09T10:08:05.311Z,10.78
2023-04-09T10:09:04.857Z,10.84
2023-04-09T10:10:04.848Z,10.84
2023-04-09T10:11:04.830Z,10.86
2023-04-09T10:12:04.826Z,10.87
2023-04-09T10:13:05.326Z,10.99
2023-04-09T10:14:04.810Z,10.90
2023-04-09T10:15:04.807Z,10.89
2023-04-09T10:16:04.888Z,10.93
2023-04-09T10:17:04.817Z,10.90
2023-04-09T10:18:05.321Z,11.00
2023-04-09T10:19:04.787Z,11.18
2023-04-09T10:20:04.745Z,11.25
2023-04-09T10:21:04.731Z,11.29
2023-04-09T10:22:04.714Z,11.19
2023-04-09T10:23:05.244Z,11.17
2023-04-09T10:24:04.701Z,11.10
2023-04-09T10:25:04.705Z,11.11
2023-04-09T10:26:04.688Z,11.12
2023-04-09T10:27:04.667Z,11.04
2023-04-09T10:28:05.174Z,11.10
2023-04-09T10:29:04.665Z,11.11
2023-04-09T10:30:04.637Z,11.07
2023-04-09T10:31:04.677Z,11.11
2023-04-09T10:32:04.615Z,11.12
2023-04-09T10:33:05.229Z,11.18
2023-04-09T10:34:04.587Z,11.17
2023-04-09T10:35:04.593Z,11.19
2023-04-09T10:36:04.709Z,11.22
2023-04-09T10:37:04.585Z,11.17
2023-04-09T10:38:04.564Z,11.11
2023-04-09T10:39:04.559Z,11.07
2023-04-09T10:40:04.608Z,10.89
2023-04-09T10:41:04.529Z,10.67
2023-04-09T10:42:04.513Z,10.64
2023-04-09T10:43:04.529Z,10.74
2023-04-09T10:44:04.520Z,10.76
2023-04-09T10:45:04.527Z,10.69
2023-04-09T10:46:04.495Z,10.51
2023-04-09T10:47:04.488Z,10.51
2023-04-09T10:48:04.479Z,10.51
2023-04-09T10:49:04.463Z,10.53
2023-04-09T10:50:04.428Z,10.57
2023-04-09T10:51:04.429Z,10.63
2023-04-09T10:52:04.405Z,10.74
2023-04-09T10:53:04.409Z,10.86
2023-04-09T10:54:04.432Z,10.87
2023-04-09T10:55:04.390Z,10.96
2023-04-09T10:56:04.402Z,11.05
2023-04-09T10:57:04.366Z,11.15
2023-04-09T10:58:04.384Z,11.11
2023-04-09T10:59:04.385Z,11.18
2023-04-09T11:00:04.329Z,11.22
2023-04-09T11:01:04.320Z,11.26
2023-04-09T11:02:04.380Z,11.30
2023-04-09T11:03:04.574Z,11.43
2023-04-09T11:04:04.301Z,11.45
2023-04-09T11:05:04.359Z,11.45
2023-04-09T11:06:04.271Z,11.52
2023-04-09T11:07:04.267Z,11.70
2023-04-09T11:08:04.285Z,11.91
2023-04-09T11:09:04.254Z,12.07
2023-04-09T11:10:04.254Z,12.10
2023-04-09T11:11:04.245Z,12.12
2023-04-09T11:12:04.212Z,12.13
2023-04-09T11:13:04.193Z,12.35
2023-04-09T11:14:04.192Z,12.40
2023-04-09T11:15:04.199Z,12.35
2023-04-09T11:16:04.367Z,12.54
2023-04-09T11:17:04.172Z,12.90
2023-04-09T11:18:04.187Z,13.04
2023-04-09T11:19:04.143Z,13.31
2023-04-09T11:20:04.148Z,13.53
2023-04-09T11:21:04.115Z,13.71
2023-04-09T11:22:04.109Z,13.78
2023-04-09T11:23:04.119Z,13.97
2023-04-09T11:24:04.089Z,13.81
2023-04-09T11:25:04.064Z,13.92
2023-04-09T11:26:04.054Z,14.14
2023-04-09T11:27:04.050Z,14.08
2023-04-09T11:28:04.072Z,14.05
2023-04-09T11:29:04.038Z,14.04
2023-04-09T11:30:04.040Z,14.26
2023-04-09T11:31:04.040Z,14.41
2023-04-09T11:32:03.986Z,14.00
2023-04-09T11:33:04.022Z,13.57
2023-04-09T11:34:03.994Z,13.33
2023-04-09T11:35:03.961Z,13.42
2023-04-09T11:36:04.060Z,13.56
2023-04-09T11:37:03.957Z,12.93
2023-04-09T11:38:03.918Z,13.16
2023-04-09T11:39:03.947Z,13.57
2023-04-09T11:40:03.918Z,13.83
2023-04-09T11:41:03.913Z,13.57
2023-04-09T11:42:03.901Z,13.27
2023-04-09T11:43:03.895Z,13.15
2023-04-09T11:44:03.861Z,13.38
2023-04-09T11:45:03.862Z,13.54
2023-04-09T11:46:03.854Z,13.85
2023-04-09T11:47:03.927Z,14.03
2023-04-09T11:48:03.836Z,13.62
2023-04-09T11:49:03.824Z,13.04
2023-04-09T11:50:03.804Z,12.97
2023-04-09T11:51:03.797Z,12.95
2023-04-09T11:52:03.774Z,13.03
2023-04-09T11:53:03.770Z,12.83
2023-04-09T11:54:03.775Z,12.97
2023-04-09T11:55:03.752Z,13.15
2023-04-09T11:56:03.793Z,13.44
2023-04-09T11:57:03.728Z,13.74
2023-04-09T11:58:03.717Z,14.15
2023-04-09T11:59:03.737Z,14.14
2023-04-09T12:00:05.169Z,14.11
2023-04-09T12:01:03.692Z,14.43
2023-04-09T12:02:03.783Z,14.65
2023-04-09T12:03:04.093Z,14.89
2023-04-09T12:04:03.969Z,14.96
2023-04-09T12:05:03.652Z,15.14
2023-04-09T12:06:03.938Z,15.39
2023-04-09T12:07:03.643Z,15.70
2023-04-09T12:08:03.626Z,16.05
2023-04-09T12:09:03.624Z,16.42
2023-04-09T12:10:03.592Z,17.26
2023-04-09T12:11:03.607Z,17.36
2023-04-09T12:12:03.570Z,18.70
2023-04-09T12:13:03.575Z,19.86
2023-04-09T12:14:03.568Z,19.89
2023-04-09T12:15:03.555Z,19.66
2023-04-09T12:16:03.665Z,19.19
2023-04-09T12:17:03.585Z,18.38
2023-04-09T12:18:03.705Z,17.49
2023-04-09T12:19:03.521Z,17.15
2023-04-09T12:20:03.504Z,16.51
2023-04-09T12:21:03.480Z,16.49
2023-04-09T12:22:03.459Z,15.59
2023-04-09T12:23:03.471Z,15.18
2023-04-09T12:24:03.472Z,15.28
2023-04-09T12:25:03.441Z,15.51
2023-04-09T12:26:03.417Z,15.28
2023-04-09T12:27:03.417Z,14.97
2023-04-09T12:28:03.395Z,14.89
2023-04-09T12:29:03.420Z,14.55
2023-04-09T12:30:03.382Z,15.57
2023-04-09T12:31:03.541Z,16.38
2023-04-09T12:32:03.426Z,16.42
2023-04-09T12:33:03.384Z,16.21
2023-04-09T12:34:03.364Z,17.06
2023-04-09T12:35:03.333Z,16.81
2023-04-09T12:36:03.366Z,16.69
2023-04-09T12:37:03.357Z,16.21
2023-04-09T12:38:03.294Z,15.90
2023-04-09T12:39:03.318Z,15.55
2023-04-09T12:40:03.318Z,16.64
2023-04-09T12:41:03.281Z,16.84
2023-04-09T12:42:03.296Z,16.86
2023-04-09T12:43:03.252Z,16.10
2023-04-09T12:44:03.378Z,15.97
2023-04-09T12:45:03.266Z,15.29
2023-04-09T12:46:03.367Z,14.66
2023-04-09T12:47:03.222Z,14.43
2023-04-09T12:48:03.272Z,15.57
2023-04-09T12:49:03.207Z,16.56
2023-04-09T12:50:03.209Z,16.90
2023-04-09T12:51:03.165Z,17.09
2023-04-09T12:52:03.166Z,17.04
2023-04-09T12:53:03.160Z,17.22
2023-04-09T12:54:03.125Z,17.89
2023-04-09T12:55:03.122Z,16.86
2023-04-09T12:56:03.124Z,16.33
2023-04-09T12:57:03.120Z,15.49
2023-04-09T12:58:03.086Z,15.27
2023-04-09T12:59:03.086Z,15.54
2023-04-09T13:00:03.069Z,16.35
2023-04-09T13:01:03.159Z,17.54
2023-04-09T13:02:03.170Z,18.22
2023-04-09T13:03:03.197Z,18.37
2023-04-09T13:04:03.181Z,18.40
2023-04-09T13:05:03.073Z,18.38
2023-04-09T13:06:03.041Z,18.40